sensor_id;sensor_type;location;lat;lon;timestamp;P1;durP1;ratioP1;P2;durP2;ratioP2
10191;SDS011;17580;50.850;4.504;2023-05-29T00:00:06;6.07;;;3.80;;
10191;SDS011;17580;50.850;4.504;2023-05-29T00:02:33;5.27;;;3.90;;
10191;SDS011;17580;50.850;4.504;2023-05-29T00:05:00;11.50;;;4.53;;
10191;SDS011;17580;50.850;4.504;2023-05-29T00:07:29;4.93;;;3.90;;
10191;SDS011;17580;50.850;4.504;2023-05-29T00:09:57;6.87;;;4.23;;
10191;SDS011;17580;50.850;4.504;2023-05-29T00:12:24;4.43;;;3.53;;
10191;SDS011;17580;50.850;4.504;2023-05-29T00:14:51;12.10;;;4.33;;
10191;SDS011;17580;50.850;4.504;2023-05-29T00:17:18;10.63;;;4.80;;
10191;SDS011;17580;50.850;4.504;2023-05-29T00:19:45;8.37;;;3.83;;
10191;SDS011;17580;50.850;4.504;2023-05-29T00:22:12;6.47;;;4.70;;
10191;SDS011;17580;50.850;4.504;2023-05-29T00:24:41;9.17;;;4.10;;
10191;SDS011;17580;50.850;4.504;2023-05-29T00:27:08;6.80;;;4.30;;
10191;SDS011;17580;50.850;4.504;2023-05-29T00:29:35;4.40;;;4.00;;
10191;SDS011;17580;50.850;4.504;2023-05-29T00:32:03;5.03;;;4.20;;
10191;SDS011;17580;50.850;4.504;2023-05-29T00:34:30;7.90;;;4.87;;
10191;SDS011;17580;50.850;4.504;2023-05-29T00:36:58;5.23;;;4.47;;
10191;SDS011;17580;50.850;4.504;2023-05-29T00:39:26;4.90;;;4.40;;
10191;SDS011;17580;50.850;4.504;2023-05-29T00:41:54;7.07;;;4.47;;
10191;SDS011;17580;50.850;4.504;2023-05-29T00:44:22;4.70;;;3.80;;
10191;SDS011;17580;50.850;4.504;2023-05-29T00:46:49;5.30;;;4.80;;
10191;SDS011;17580;50.850;4.504;2023-05-29T00:49:18;4.83;;;4.03;;
10191;SDS011;17580;50.850;4.504;2023-05-29T00:51:47;5.70;;;3.50;;
10191;SDS011;17580;50.850;4.504;2023-05-29T00:54:26;5.93;;;4.80;;
10191;SDS011;17580;50.850;4.504;2023-05-29T00:56:56;5.67;;;5.10;;
10191;SDS011;17580;50.850;4.504;2023-05-29T00:59:24;6.73;;;4.70;;
10191;SDS011;17580;50.850;4.504;2023-05-29T01:01:52;7.37;;;4.30;;
10191;SDS011;17580;50.850;4.504;2023-05-29T01:04:22;5.87;;;4.97;;
10191;SDS011;17580;50.850;4.504;2023-05-29T01:06:50;11.53;;;5.10;;
10191;SDS011;17580;50.850;4.504;2023-05-29T01:09:18;6.13;;;5.07;;
10191;SDS011;17580;50.850;4.504;2023-05-29T01:11:47;9.17;;;4.83;;
10191;SDS011;17580;50.850;4.504;2023-05-29T01:14:25;11.10;;;5.27;;
10191;SDS011;17580;50.850;4.504;2023-05-29T01:17:00;10.43;;;5.13;;
10191;SDS011;17580;50.850;4.504;2023-05-29T01:19:39;7.67;;;4.97;;
10191;SDS011;17580;50.850;4.504;2023-05-29T01:22:19;5.00;;;4.53;;
10191;SDS011;17580;50.850;4.504;2023-05-29T01:25:02;10.30;;;4.77;;
10191;SDS011;17580;50.850;4.504;2023-05-29T01:27:38;7.23;;;5.10;;
10191;SDS011;17580;50.850;4.504;2023-05-29T01:30:07;6.53;;;4.60;;
10191;SDS011;17580;50.850;4.504;2023-05-29T01:32:35;7.53;;;4.93;;
10191;SDS011;17580;50.850;4.504;2023-05-29T01:35:04;9.07;;;5.43;;
10191;SDS011;17580;50.850;4.504;2023-05-29T01:37:31;8.20;;;4.87;;
10191;SDS011;17580;50.850;4.504;2023-05-29T01:39:58;6.03;;;5.03;;
10191;SDS011;17580;50.850;4.504;2023-05-29T01:42:26;7.07;;;5.00;;
10191;SDS011;17580;50.850;4.504;2023-05-29T01:44:55;8.53;;;5.60;;
10191;SDS011;17580;50.850;4.504;2023-05-29T01:47:23;8.27;;;5.63;;
10191;SDS011;17580;50.850;4.504;2023-05-29T01:49:50;6.63;;;4.93;;
10191;SDS011;17580;50.850;4.504;2023-05-29T01:52:18;6.50;;;4.40;;
10191;SDS011;17580;50.850;4.504;2023-05-29T01:54:45;5.70;;;4.40;;
10191;SDS011;17580;50.850;4.504;2023-05-29T01:57:12;8.07;;;5.20;;
10191;SDS011;17580;50.850;4.504;2023-05-29T01:59:39;12.60;;;5.80;;
10191;SDS011;17580;50.850;4.504;2023-05-29T02:02:08;10.30;;;6.13;;
10191;SDS011;17580;50.850;4.504;2023-05-29T02:04:36;4.90;;;4.20;;
10191;SDS011;17580;50.850;4.504;2023-05-29T02:07:04;5.57;;;4.97;;
10191;SDS011;17580;50.850;4.504;2023-05-29T02:09:31;8.53;;;5.47;;
10191;SDS011;17580;50.850;4.504;2023-05-29T02:11:59;9.77;;;5.47;;
10191;SDS011;17580;50.850;4.504;2023-05-29T02:14:27;8.60;;;5.17;;
10191;SDS011;17580;50.850;4.504;2023-05-29T02:16:54;8.33;;;4.80;;
10191;SDS011;17580;50.850;4.504;2023-05-29T02:19:23;8.17;;;4.90;;
10191;SDS011;17580;50.850;4.504;2023-05-29T02:21:52;7.10;;;4.93;;
10191;SDS011;17580;50.850;4.504;2023-05-29T02:24:19;10.27;;;5.37;;
10191;SDS011;17580;50.850;4.504;2023-05-29T02:26:47;9.33;;;5.03;;
10191;SDS011;17580;50.850;4.504;2023-05-29T02:29:15;6.17;;;5.03;;
10191;SDS011;17580;50.850;4.504;2023-05-29T02:31:42;6.80;;;4.70;;
10191;SDS011;17580;50.850;4.504;2023-05-29T02:34:09;6.30;;;4.50;;
10191;SDS011;17580;50.850;4.504;2023-05-29T02:36:37;10.17;;;4.73;;
10191;SDS011;17580;50.850;4.504;2023-05-29T02:39:05;7.33;;;4.93;;
10191;SDS011;17580;50.850;4.504;2023-05-29T02:41:32;6.73;;;3.90;;
10191;SDS011;17580;50.850;4.504;2023-05-29T02:43:59;8.00;;;4.10;;
10191;SDS011;17580;50.850;4.504;2023-05-29T02:46:26;7.63;;;5.17;;
10191;SDS011;17580;50.850;4.504;2023-05-29T02:48:53;10.40;;;4.73;;
10191;SDS011;17580;50.850;4.504;2023-05-29T02:51:20;7.23;;;3.97;;
10191;SDS011;17580;50.850;4.504;2023-05-29T02:53:48;10.47;;;4.90;;
10191;SDS011;17580;50.850;4.504;2023-05-29T02:56:15;9.60;;;3.87;;
10191;SDS011;17580;50.850;4.504;2023-05-29T02:58:42;5.97;;;3.33;;
10191;SDS011;17580;50.850;4.504;2023-05-29T03:01:10;12.43;;;4.13;;
10191;SDS011;17580;50.850;4.504;2023-05-29T03:03:37;6.87;;;3.60;;
10191;SDS011;17580;50.850;4.504;2023-05-29T03:06:04;10.47;;;4.17;;
10191;SDS011;17580;50.850;4.504;2023-05-29T03:08:31;7.10;;;3.27;;
10191;SDS011;17580;50.850;4.504;2023-05-29T03:11:00;6.33;;;4.23;;
10191;SDS011;17580;50.850;4.504;2023-05-29T03:13:28;7.83;;;4.17;;
10191;SDS011;17580;50.850;4.504;2023-05-29T03:15:55;7.70;;;3.17;;
10191;SDS011;17580;50.850;4.504;2023-05-29T03:18:22;7.97;;;3.77;;
10191;SDS011;17580;50.850;4.504;2023-05-29T03:20:49;8.97;;;3.67;;
10191;SDS011;17580;50.850;4.504;2023-05-29T03:23:16;9.43;;;3.80;;
10191;SDS011;17580;50.850;4.504;2023-05-29T03:25:43;5.97;;;3.00;;
10191;SDS011;17580;50.850;4.504;2023-05-29T03:28:11;8.17;;;3.73;;
10191;SDS011;17580;50.850;4.504;2023-05-29T03:30:38;7.43;;;3.30;;
10191;SDS011;17580;50.850;4.504;2023-05-29T03:33:05;6.53;;;3.10;;
10191;SDS011;17580;50.850;4.504;2023-05-29T03:35:33;8.17;;;3.33;;
10191;SDS011;17580;50.850;4.504;2023-05-29T03:38:00;7.97;;;3.23;;
10191;SDS011;17580;50.850;4.504;2023-05-29T03:40:27;7.07;;;3.10;;
10191;SDS011;17580;50.850;4.504;2023-05-29T03:42:54;7.87;;;3.33;;
10191;SDS011;17580;50.850;4.504;2023-05-29T03:45:22;7.17;;;2.63;;
10191;SDS011;17580;50.850;4.504;2023-05-29T03:47:49;8.80;;;2.60;;
10191;SDS011;17580;50.850;4.504;2023-05-29T03:50:16;7.27;;;3.17;;
10191;SDS011;17580;50.850;4.504;2023-05-29T03:52:43;5.13;;;2.70;;
10191;SDS011;17580;50.850;4.504;2023-05-29T03:55:10;6.37;;;2.67;;
10191;SDS011;17580;50.850;4.504;2023-05-29T03:57:39;8.20;;;3.13;;
10191;SDS011;17580;50.850;4.504;2023-05-29T04:00:07;8.07;;;3.37;;
10191;SDS011;17580;50.850;4.504;2023-05-29T04:02:38;7.67;;;2.80;;
10191;SDS011;17580;50.850;4.504;2023-05-29T04:05:05;6.73;;;2.90;;
10191;SDS011;17580;50.850;4.504;2023-05-29T04:07:34;8.97;;;3.00;;
10191;SDS011;17580;50.850;4.504;2023-05-29T04:10:02;8.93;;;3.23;;
10191;SDS011;17580;50.850;4.504;2023-05-29T04:12:29;7.70;;;2.70;;
10191;SDS011;17580;50.850;4.504;2023-05-29T04:14:57;9.30;;;3.17;;
10191;SDS011;17580;50.850;4.504;2023-05-29T04:17:24;4.20;;;2.53;;
10191;SDS011;17580;50.850;4.504;2023-05-29T04:19:53;7.73;;;2.67;;
10191;SDS011;17580;50.850;4.504;2023-05-29T04:22:20;6.00;;;2.63;;
10191;SDS011;17580;50.850;4.504;2023-05-29T04:24:47;10.53;;;2.90;;
10191;SDS011;17580;50.850;4.504;2023-05-29T04:27:14;7.10;;;2.43;;
10191;SDS011;17580;50.850;4.504;2023-05-29T04:29:41;7.33;;;3.00;;
10191;SDS011;17580;50.850;4.504;2023-05-29T04:32:08;5.27;;;2.40;;
10191;SDS011;17580;50.850;4.504;2023-05-29T04:34:36;9.97;;;3.00;;
10191;SDS011;17580;50.850;4.504;2023-05-29T04:37:05;9.23;;;3.23;;
10191;SDS011;17580;50.850;4.504;2023-05-29T04:39:32;6.17;;;2.43;;
10191;SDS011;17580;50.850;4.504;2023-05-29T04:41:59;7.60;;;3.07;;
10191;SDS011;17580;50.850;4.504;2023-05-29T04:44:26;8.23;;;3.00;;
10191;SDS011;17580;50.850;4.504;2023-05-29T04:46:54;9.50;;;3.03;;
10191;SDS011;17580;50.850;4.504;2023-05-29T04:49:22;5.97;;;2.53;;
10191;SDS011;17580;50.850;4.504;2023-05-29T04:51:49;8.17;;;2.97;;
10191;SDS011;17580;50.850;4.504;2023-05-29T04:54:21;8.23;;;3.20;;
10191;SDS011;17580;50.850;4.504;2023-05-29T04:56:48;5.87;;;2.53;;
10191;SDS011;17580;50.850;4.504;2023-05-29T04:59:15;6.97;;;2.93;;
10191;SDS011;17580;50.850;4.504;2023-05-29T05:01:42;9.40;;;3.27;;
10191;SDS011;17580;50.850;4.504;2023-05-29T05:04:10;7.00;;;3.33;;
10191;SDS011;17580;50.850;4.504;2023-05-29T05:06:37;10.30;;;2.70;;
10191;SDS011;17580;50.850;4.504;2023-05-29T05:09:04;8.13;;;2.60;;
10191;SDS011;17580;50.850;4.504;2023-05-29T05:11:33;9.27;;;2.70;;
10191;SDS011;17580;50.850;4.504;2023-05-29T05:14:00;6.63;;;2.37;;
10191;SDS011;17580;50.850;4.504;2023-05-29T05:16:27;5.47;;;2.80;;
10191;SDS011;17580;50.850;4.504;2023-05-29T05:18:54;7.90;;;2.50;;
10191;SDS011;17580;50.850;4.504;2023-05-29T05:21:21;6.33;;;2.33;;
10191;SDS011;17580;50.850;4.504;2023-05-29T05:23:48;7.63;;;2.43;;
10191;SDS011;17580;50.850;4.504;2023-05-29T05:26:15;10.27;;;3.20;;
10191;SDS011;17580;50.850;4.504;2023-05-29T05:28:43;3.87;;;2.10;;
10191;SDS011;17580;50.850;4.504;2023-05-29T05:31:10;10.70;;;3.13;;
10191;SDS011;17580;50.850;4.504;2023-05-29T05:33:37;7.73;;;2.47;;
10191;SDS011;17580;50.850;4.504;2023-05-29T05:36:04;8.00;;;2.97;;
10191;SDS011;17580;50.850;4.504;2023-05-29T05:38:31;9.50;;;3.40;;
10191;SDS011;17580;50.850;4.504;2023-05-29T05:40:59;7.10;;;3.00;;
10191;SDS011;17580;50.850;4.504;2023-05-29T05:43:26;5.63;;;2.80;;
10191;SDS011;17580;50.850;4.504;2023-05-29T05:45:55;4.17;;;2.33;;
10191;SDS011;17580;50.850;4.504;2023-05-29T05:48:22;8.73;;;3.40;;
10191;SDS011;17580;50.850;4.504;2023-05-29T05:50:49;9.50;;;2.90;;
10191;SDS011;17580;50.850;4.504;2023-05-29T05:53:16;4.77;;;2.43;;
10191;SDS011;17580;50.850;4.504;2023-05-29T05:55:43;3.57;;;2.20;;
10191;SDS011;17580;50.850;4.504;2023-05-29T05:58:11;5.23;;;2.33;;
10191;SDS011;17580;50.850;4.504;2023-05-29T06:00:39;7.10;;;3.27;;
10191;SDS011;17580;50.850;4.504;2023-05-29T06:03:08;7.77;;;2.73;;
10191;SDS011;17580;50.850;4.504;2023-05-29T06:05:35;5.37;;;2.80;;
10191;SDS011;17580;50.850;4.504;2023-05-29T06:08:06;5.67;;;2.40;;
10191;SDS011;17580;50.850;4.504;2023-05-29T06:10:33;10.37;;;3.17;;
10191;SDS011;17580;50.850;4.504;2023-05-29T06:13:01;6.53;;;2.87;;
10191;SDS011;17580;50.850;4.504;2023-05-29T06:15:28;7.70;;;2.73;;
10191;SDS011;17580;50.850;4.504;2023-05-29T06:17:55;9.93;;;2.43;;
10191;SDS011;17580;50.850;4.504;2023-05-29T06:20:24;12.70;;;3.27;;
10191;SDS011;17580;50.850;4.504;2023-05-29T06:22:51;8.47;;;3.00;;
10191;SDS011;17580;50.850;4.504;2023-05-29T06:25:18;6.37;;;2.37;;
10191;SDS011;17580;50.850;4.504;2023-05-29T06:27:46;4.87;;;2.87;;
10191;SDS011;17580;50.850;4.504;2023-05-29T06:30:13;5.43;;;2.20;;
10191;SDS011;17580;50.850;4.504;2023-05-29T06:32:40;8.50;;;3.53;;
10191;SDS011;17580;50.850;4.504;2023-05-29T06:35:08;8.27;;;2.43;;
10191;SDS011;17580;50.850;4.504;2023-05-29T06:37:36;6.10;;;3.10;;
10191;SDS011;17580;50.850;4.504;2023-05-29T06:40:03;7.17;;;2.63;;
10191;SDS011;17580;50.850;4.504;2023-05-29T06:42:31;6.90;;;2.77;;
10191;SDS011;17580;50.850;4.504;2023-05-29T06:44:58;8.43;;;2.70;;
10191;SDS011;17580;50.850;4.504;2023-05-29T06:47:25;8.43;;;3.60;;
10191;SDS011;17580;50.850;4.504;2023-05-29T06:49:52;8.90;;;3.00;;
10191;SDS011;17580;50.850;4.504;2023-05-29T06:52:19;6.33;;;2.70;;
10191;SDS011;17580;50.850;4.504;2023-05-29T06:54:48;7.07;;;3.10;;
10191;SDS011;17580;50.850;4.504;2023-05-29T06:57:15;8.57;;;3.40;;
10191;SDS011;17580;50.850;4.504;2023-05-29T06:59:42;8.23;;;2.43;;
10191;SDS011;17580;50.850;4.504;2023-05-29T07:02:09;10.47;;;3.50;;
10191;SDS011;17580;50.850;4.504;2023-05-29T07:04:35;9.27;;;3.10;;
10191;SDS011;17580;50.850;4.504;2023-05-29T07:07:03;6.70;;;2.70;;
10191;SDS011;17580;50.850;4.504;2023-05-29T07:09:30;10.27;;;3.23;;
10191;SDS011;17580;50.850;4.504;2023-05-29T07:11:59;11.27;;;3.47;;
10191;SDS011;17580;50.850;4.504;2023-05-29T07:14:26;8.07;;;2.80;;
10191;SDS011;17580;50.850;4.504;2023-05-29T07:16:53;5.93;;;3.60;;
10191;SDS011;17580;50.850;4.504;2023-05-29T07:19:20;5.63;;;2.87;;
10191;SDS011;17580;50.850;4.504;2023-05-29T07:21:47;6.10;;;2.53;;
10191;SDS011;17580;50.850;4.504;2023-05-29T07:24:14;10.70;;;2.60;;
10191;SDS011;17580;50.850;4.504;2023-05-29T07:26:41;6.30;;;2.70;;
10191;SDS011;17580;50.850;4.504;2023-05-29T07:29:09;10.13;;;3.13;;
10191;SDS011;17580;50.850;4.504;2023-05-29T07:31:37;10.73;;;3.33;;
10191;SDS011;17580;50.850;4.504;2023-05-29T07:34:05;8.13;;;2.87;;
10191;SDS011;17580;50.850;4.504;2023-05-29T07:36:32;6.97;;;2.67;;
10191;SDS011;17580;50.850;4.504;2023-05-29T07:38:59;9.17;;;3.93;;
10191;SDS011;17580;50.850;4.504;2023-05-29T07:41:26;7.17;;;2.73;;
10191;SDS011;17580;50.850;4.504;2023-05-29T07:43:53;5.13;;;2.37;;
10191;SDS011;17580;50.850;4.504;2023-05-29T07:46:22;4.07;;;2.53;;
10191;SDS011;17580;50.850;4.504;2023-05-29T07:48:49;4.57;;;2.60;;
10191;SDS011;17580;50.850;4.504;2023-05-29T07:51:16;6.00;;;2.60;;
10191;SDS011;17580;50.850;4.504;2023-05-29T07:53:44;8.50;;;2.53;;
10191;SDS011;17580;50.850;4.504;2023-05-29T07:56:11;10.57;;;3.27;;
10191;SDS011;17580;50.850;4.504;2023-05-29T07:58:39;4.90;;;2.30;;
10191;SDS011;17580;50.850;4.504;2023-05-29T08:01:07;6.90;;;2.70;;
10191;SDS011;17580;50.850;4.504;2023-05-29T08:03:35;5.43;;;2.77;;
10191;SDS011;17580;50.850;4.504;2023-05-29T08:06:03;5.67;;;2.50;;
10191;SDS011;17580;50.850;4.504;2023-05-29T08:08:30;6.30;;;2.60;;
10191;SDS011;17580;50.850;4.504;2023-05-29T08:10:57;7.13;;;2.90;;
10191;SDS011;17580;50.850;4.504;2023-05-29T08:13:25;5.33;;;2.33;;
10191;SDS011;17580;50.850;4.504;2023-05-29T08:15:53;4.80;;;2.50;;
10191;SDS011;17580;50.850;4.504;2023-05-29T08:18:20;6.77;;;3.20;;
10191;SDS011;17580;50.850;4.504;2023-05-29T08:20:48;5.07;;;2.80;;
10191;SDS011;17580;50.850;4.504;2023-05-29T08:23:15;7.90;;;3.23;;
10191;SDS011;17580;50.850;4.504;2023-05-29T08:25:42;4.43;;;2.10;;
10191;SDS011;17580;50.850;4.504;2023-05-29T08:28:09;6.87;;;2.97;;
10191;SDS011;17580;50.850;4.504;2023-05-29T08:30:36;6.43;;;2.83;;
10191;SDS011;17580;50.850;4.504;2023-05-29T08:33:04;9.20;;;2.97;;
10191;SDS011;17580;50.850;4.504;2023-05-29T08:35:31;11.87;;;3.23;;
10191;SDS011;17580;50.850;4.504;2023-05-29T08:37:59;7.33;;;2.23;;
10191;SDS011;17580;50.850;4.504;2023-05-29T08:40:26;6.77;;;2.40;;
10191;SDS011;17580;50.850;4.504;2023-05-29T08:42:55;9.67;;;3.30;;
10191;SDS011;17580;50.850;4.504;2023-05-29T08:45:24;5.17;;;2.57;;
10191;SDS011;17580;50.850;4.504;2023-05-29T08:47:51;5.83;;;2.83;;
10191;SDS011;17580;50.850;4.504;2023-05-29T08:50:20;9.40;;;2.87;;
10191;SDS011;17580;50.850;4.504;2023-05-29T08:52:48;11.00;;;3.50;;
10191;SDS011;17580;50.850;4.504;2023-05-29T08:55:17;8.63;;;3.13;;
10191;SDS011;17580;50.850;4.504;2023-05-29T08:57:45;7.47;;;3.47;;
10191;SDS011;17580;50.850;4.504;2023-05-29T09:00:13;8.17;;;3.23;;
10191;SDS011;17580;50.850;4.504;2023-05-29T09:02:43;6.77;;;3.00;;
10191;SDS011;17580;50.850;4.504;2023-05-29T09:05:10;6.83;;;2.63;;
10191;SDS011;17580;50.850;4.504;2023-05-29T09:07:38;9.67;;;2.90;;
10191;SDS011;17580;50.850;4.504;2023-05-29T09:10:06;7.33;;;3.17;;
10191;SDS011;17580;50.850;4.504;2023-05-29T09:12:35;12.93;;;2.87;;
10191;SDS011;17580;50.850;4.504;2023-05-29T09:15:03;6.07;;;3.00;;
10191;SDS011;17580;50.850;4.504;2023-05-29T09:17:42;7.83;;;3.40;;
10191;SDS011;17580;50.850;4.504;2023-05-29T09:20:14;8.03;;;3.13;;
10191;SDS011;17580;50.850;4.504;2023-05-29T09:22:43;8.83;;;3.23;;
10191;SDS011;17580;50.850;4.504;2023-05-29T09:25:18;10.40;;;3.23;;
10191;SDS011;17580;50.850;4.504;2023-05-29T09:27:50;8.43;;;3.40;;
10191;SDS011;17580;50.850;4.504;2023-05-29T09:30:30;8.97;;;3.17;;
10191;SDS011;17580;50.850;4.504;2023-05-29T09:32:58;5.80;;;3.70;;
10191;SDS011;17580;50.850;4.504;2023-05-29T09:35:31;5.60;;;2.97;;
10191;SDS011;17580;50.850;4.504;2023-05-29T09:38:03;10.13;;;3.20;;
10191;SDS011;17580;50.850;4.504;2023-05-29T09:40:31;5.77;;;3.17;;
10191;SDS011;17580;50.850;4.504;2023-05-29T09:43:03;7.03;;;3.90;;
10191;SDS011;17580;50.850;4.504;2023-05-29T09:45:32;8.03;;;3.13;;
10191;SDS011;17580;50.850;4.504;2023-05-29T09:48:03;6.80;;;3.07;;
10191;SDS011;17580;50.850;4.504;2023-05-29T09:50:31;5.77;;;3.10;;
10191;SDS011;17580;50.850;4.504;2023-05-29T09:52:59;7.63;;;3.83;;
10191;SDS011;17580;50.850;4.504;2023-05-29T09:55:27;9.33;;;3.93;;
10191;SDS011;17580;50.850;4.504;2023-05-29T09:57:56;7.27;;;3.50;;
10191;SDS011;17580;50.850;4.504;2023-05-29T10:00:26;7.17;;;3.60;;
10191;SDS011;17580;50.850;4.504;2023-05-29T10:02:54;5.83;;;3.63;;
10191;SDS011;17580;50.850;4.504;2023-05-29T10:05:21;6.63;;;3.27;;
10191;SDS011;17580;50.850;4.504;2023-05-29T10:07:49;6.77;;;3.40;;
10191;SDS011;17580;50.850;4.504;2023-05-29T10:10:18;6.03;;;3.13;;
10191;SDS011;17580;50.850;4.504;2023-05-29T10:12:48;7.27;;;2.80;;
10191;SDS011;17580;50.850;4.504;2023-05-29T10:15:16;10.17;;;3.53;;
10191;SDS011;17580;50.850;4.504;2023-05-29T10:17:49;4.87;;;2.83;;
10191;SDS011;17580;50.850;4.504;2023-05-29T10:20:19;6.83;;;3.37;;
10191;SDS011;17580;50.850;4.504;2023-05-29T10:22:48;7.60;;;3.40;;
10191;SDS011;17580;50.850;4.504;2023-05-29T10:25:17;8.03;;;3.07;;
10191;SDS011;17580;50.850;4.504;2023-05-29T10:27:46;6.33;;;3.10;;
10191;SDS011;17580;50.850;4.504;2023-05-29T10:30:16;6.80;;;2.77;;
10191;SDS011;17580;50.850;4.504;2023-05-29T10:33:05;6.47;;;3.30;;
10191;SDS011;17580;50.850;4.504;2023-05-29T10:35:47;6.10;;;2.90;;
10191;SDS011;17580;50.850;4.504;2023-05-29T10:38:18;9.10;;;3.40;;
10191;SDS011;17580;50.850;4.504;2023-05-29T10:40:46;6.47;;;2.87;;
10191;SDS011;17580;50.850;4.504;2023-05-29T10:45:58;7.73;;;3.57;;
10191;SDS011;17580;50.850;4.504;2023-05-29T10:48:43;5.93;;;3.00;;
10191;SDS011;17580;50.850;4.504;2023-05-29T10:51:26;5.67;;;3.50;;
10191;SDS011;17580;50.850;4.504;2023-05-29T10:53:54;7.23;;;3.90;;
10191;SDS011;17580;50.850;4.504;2023-05-29T10:56:22;6.03;;;3.20;;
10191;SDS011;17580;50.850;4.504;2023-05-29T10:58:55;5.53;;;2.60;;
10191;SDS011;17580;50.850;4.504;2023-05-29T11:01:26;3.57;;;2.67;;
10191;SDS011;17580;50.850;4.504;2023-05-29T11:04:08;5.03;;;3.23;;
10191;SDS011;17580;50.850;4.504;2023-05-29T11:06:53;8.13;;;3.33;;
10191;SDS011;17580;50.850;4.504;2023-05-29T11:09:27;6.60;;;3.27;;
10191;SDS011;17580;50.850;4.504;2023-05-29T11:14:53;7.43;;;3.30;;
10191;SDS011;17580;50.850;4.504;2023-05-29T11:17:31;4.80;;;3.13;;
10191;SDS011;17580;50.850;4.504;2023-05-29T11:20:16;8.53;;;3.43;;
10191;SDS011;17580;50.850;4.504;2023-05-29T11:22:59;7.47;;;3.10;;
10191;SDS011;17580;50.850;4.504;2023-05-29T11:25:28;5.77;;;2.93;;
10191;SDS011;17580;50.850;4.504;2023-05-29T11:28:00;7.07;;;2.70;;
10191;SDS011;17580;50.850;4.504;2023-05-29T11:30:28;5.63;;;2.87;;
10191;SDS011;17580;50.850;4.504;2023-05-29T11:32:56;4.83;;;2.43;;
10191;SDS011;17580;50.850;4.504;2023-05-29T11:35:34;6.03;;;2.60;;
10191;SDS011;17580;50.850;4.504;2023-05-29T11:38:04;5.37;;;2.97;;
10191;SDS011;17580;50.850;4.504;2023-05-29T11:40:35;5.40;;;2.30;;
10191;SDS011;17580;50.850;4.504;2023-05-29T11:43:02;8.50;;;3.30;;
10191;SDS011;17580;50.850;4.504;2023-05-29T11:45:31;4.13;;;2.87;;
10191;SDS011;17580;50.850;4.504;2023-05-29T11:48:00;6.13;;;3.13;;
10191;SDS011;17580;50.850;4.504;2023-05-29T11:50:29;7.17;;;3.33;;
10191;SDS011;17580;50.850;4.504;2023-05-29T11:52:58;5.93;;;2.63;;
10191;SDS011;17580;50.850;4.504;2023-05-29T11:55:26;5.67;;;2.93;;
10191;SDS011;17580;50.850;4.504;2023-05-29T11:57:56;5.10;;;2.50;;
10191;SDS011;17580;50.850;4.504;2023-05-29T12:00:24;6.17;;;3.10;;
10191;SDS011;17580;50.850;4.504;2023-05-29T12:02:51;6.03;;;2.60;;
10191;SDS011;17580;50.850;4.504;2023-05-29T12:05:18;4.97;;;2.60;;
10191;SDS011;17580;50.850;4.504;2023-05-29T12:07:50;4.87;;;2.80;;
10191;SDS011;17580;50.850;4.504;2023-05-29T12:10:20;4.67;;;2.70;;
10191;SDS011;17580;50.850;4.504;2023-05-29T12:12:47;6.57;;;2.93;;
10191;SDS011;17580;50.850;4.504;2023-05-29T12:15:16;5.07;;;2.60;;
10191;SDS011;17580;50.850;4.504;2023-05-29T12:17:44;8.57;;;2.70;;
10191;SDS011;17580;50.850;4.504;2023-05-29T12:20:11;4.50;;;2.53;;
10191;SDS011;17580;50.850;4.504;2023-05-29T12:22:39;3.80;;;2.47;;
10191;SDS011;17580;50.850;4.504;2023-05-29T12:25:08;11.37;;;5.03;;
10191;SDS011;17580;50.850;4.504;2023-05-29T12:27:39;6.33;;;4.07;;
10191;SDS011;17580;50.850;4.504;2023-05-29T12:30:12;8.30;;;3.10;;
10191;SDS011;17580;50.850;4.504;2023-05-29T12:32:41;7.03;;;2.60;;
10191;SDS011;17580;50.850;4.504;2023-05-29T12:35:10;2.87;;;2.67;;
10191;SDS011;17580;50.850;4.504;2023-05-29T12:37:42;7.93;;;3.10;;
10191;SDS011;17580;50.850;4.504;2023-05-29T12:40:16;4.00;;;2.80;;
10191;SDS011;17580;50.850;4.504;2023-05-29T12:42:46;3.20;;;2.50;;
10191;SDS011;17580;50.850;4.504;2023-05-29T12:45:14;4.43;;;2.80;;
10191;SDS011;17580;50.850;4.504;2023-05-29T12:47:45;4.57;;;2.60;;
10191;SDS011;17580;50.850;4.504;2023-05-29T12:50:20;6.33;;;2.77;;
10191;SDS011;17580;50.850;4.504;2023-05-29T12:52:54;7.23;;;3.23;;
10191;SDS011;17580;50.850;4.504;2023-05-29T12:55:23;7.27;;;3.07;;
10191;SDS011;17580;50.850;4.504;2023-05-29T12:57:51;5.30;;;2.87;;
10191;SDS011;17580;50.850;4.504;2023-05-29T13:00:19;7.23;;;2.60;;
10191;SDS011;17580;50.850;4.504;2023-05-29T13:02:47;2.80;;;2.57;;
10191;SDS011;17580;50.850;4.504;2023-05-29T13:05:14;6.17;;;2.80;;
10191;SDS011;17580;50.850;4.504;2023-05-29T13:07:44;6.23;;;2.77;;
10191;SDS011;17580;50.850;4.504;2023-05-29T13:10:12;4.43;;;2.47;;
10191;SDS011;17580;50.850;4.504;2023-05-29T13:12:39;5.23;;;2.87;;
10191;SDS011;17580;50.850;4.504;2023-05-29T13:15:09;4.20;;;2.57;;
10191;SDS011;17580;50.850;4.504;2023-05-29T13:17:37;8.03;;;3.40;;
10191;SDS011;17580;50.850;4.504;2023-05-29T13:20:07;6.83;;;2.53;;
10191;SDS011;17580;50.850;4.504;2023-05-29T13:22:35;7.30;;;2.80;;
10191;SDS011;17580;50.850;4.504;2023-05-29T13:25:02;7.30;;;2.77;;
10191;SDS011;17580;50.850;4.504;2023-05-29T13:27:31;4.17;;;2.30;;
10191;SDS011;17580;50.850;4.504;2023-05-29T13:30:00;3.80;;;2.33;;
10191;SDS011;17580;50.850;4.504;2023-05-29T13:32:31;3.73;;;2.90;;
10191;SDS011;17580;50.850;4.504;2023-05-29T13:34:58;3.33;;;2.67;;
10191;SDS011;17580;50.850;4.504;2023-05-29T13:37:25;7.33;;;2.83;;
10191;SDS011;17580;50.850;4.504;2023-05-29T13:39:53;4.20;;;2.50;;
10191;SDS011;17580;50.850;4.504;2023-05-29T13:42:20;4.83;;;2.70;;
10191;SDS011;17580;50.850;4.504;2023-05-29T13:44:48;5.37;;;3.10;;
10191;SDS011;17580;50.850;4.504;2023-05-29T13:47:16;8.53;;;2.87;;
10191;SDS011;17580;50.850;4.504;2023-05-29T13:49:44;4.80;;;3.13;;
10191;SDS011;17580;50.850;4.504;2023-05-29T13:52:12;6.77;;;2.87;;
10191;SDS011;17580;50.850;4.504;2023-05-29T13:54:39;4.37;;;2.60;;
10191;SDS011;17580;50.850;4.504;2023-05-29T13:57:06;5.10;;;2.77;;
10191;SDS011;17580;50.850;4.504;2023-05-29T13:59:34;6.57;;;3.07;;
10191;SDS011;17580;50.850;4.504;2023-05-29T14:02:01;8.70;;;3.07;;
10191;SDS011;17580;50.850;4.504;2023-05-29T14:04:29;5.17;;;3.10;;
10191;SDS011;17580;50.850;4.504;2023-05-29T14:06:58;6.43;;;2.80;;
10191;SDS011;17580;50.850;4.504;2023-05-29T14:09:25;3.93;;;2.40;;
10191;SDS011;17580;50.850;4.504;2023-05-29T14:11:55;3.70;;;2.90;;
10191;SDS011;17580;50.850;4.504;2023-05-29T14:14:23;6.17;;;3.13;;
10191;SDS011;17580;50.850;4.504;2023-05-29T14:16:51;10.83;;;3.53;;
10191;SDS011;17580;50.850;4.504;2023-05-29T14:19:19;4.23;;;2.20;;
10191;SDS011;17580;50.850;4.504;2023-05-29T14:21:47;7.87;;;2.87;;
10191;SDS011;17580;50.850;4.504;2023-05-29T14:24:16;4.07;;;2.80;;
10191;SDS011;17580;50.850;4.504;2023-05-29T14:26:43;3.80;;;3.00;;
10191;SDS011;17580;50.850;4.504;2023-05-29T14:29:12;7.60;;;2.50;;
10191;SDS011;17580;50.850;4.504;2023-05-29T14:31:39;4.60;;;2.70;;
10191;SDS011;17580;50.850;4.504;2023-05-29T14:34:06;5.77;;;2.60;;
10191;SDS011;17580;50.850;4.504;2023-05-29T14:36:34;7.53;;;2.90;;
10191;SDS011;17580;50.850;4.504;2023-05-29T14:39:01;5.33;;;3.10;;
10191;SDS011;17580;50.850;4.504;2023-05-29T14:41:30;5.73;;;2.80;;
10191;SDS011;17580;50.850;4.504;2023-05-29T14:43:58;4.83;;;2.90;;
10191;SDS011;17580;50.850;4.504;2023-05-29T14:46:25;6.00;;;2.80;;
10191;SDS011;17580;50.850;4.504;2023-05-29T14:48:56;3.30;;;2.50;;
10191;SDS011;17580;50.850;4.504;2023-05-29T14:51:23;5.57;;;2.90;;
10191;SDS011;17580;50.850;4.504;2023-05-29T14:53:50;5.97;;;3.20;;
10191;SDS011;17580;50.850;4.504;2023-05-29T14:56:17;4.47;;;2.90;;
10191;SDS011;17580;50.850;4.504;2023-05-29T14:58:46;4.33;;;2.53;;